sensor_id;sensor_type;location;lat;lon;timestamp;temperature;humidity
25963;DHT22;13760;52.588;13.406;2023-03-15T00:00:27;1.00;99.90
25963;DHT22;13760;52.588;13.406;2023-03-15T00:02:52;1.00;99.90
25963;DHT22;13760;52.588;13.406;2023-03-15T00:05:18;1.10;99.90
25963;DHT22;13760;52.588;13.406;2023-03-15T00:07:44;1.00;99.90
25963;DHT22;13760;52.588;13.406;2023-03-15T00:10:10;1.00;99.90
25963;DHT22;13760;52.588;13.406;2023-03-15T00:12:35;1.00;99.90
25963;DHT22;13760;52.588;13.406;2023-03-15T00:15:01;1.00;99.90
25963;DHT22;13760;52.588;13.406;2023-03-15T00:17:26;1.00;99.90
25963;DHT22;13760;52.588;13.406;2023-03-15T00:19:52;1.00;99.90
25963;DHT22;13760;52.588;13.406;2023-03-15T00:22:18;1.00;99.90
25963;DHT22;13760;52.588;13.406;2023-03-15T00:24:43;1.00;99.90
25963;DHT22;13760;52.588;13.406;2023-03-15T00:27:09;1.00;99.90
25963;DHT22;13760;52.588;13.406;2023-03-15T00:29:35;1.00;99.90
25963;DHT22;13760;52.588;13.406;2023-03-15T00:32:00;0.90;99.90
25963;DHT22;13760;52.588;13.406;2023-03-15T00:34:26;1.00;99.90
25963;DHT22;13760;52.588;13.406;2023-03-15T00:36:52;1.00;99.90
25963;DHT22;13760;52.588;13.406;2023-03-15T00:39:20;0.90;99.90
25963;DHT22;13760;52.588;13.406;2023-03-15T00:41:46;0.90;99.90
25963;DHT22;13760;52.588;13.406;2023-03-15T00:44:12;0.90;99.90
25963;DHT22;13760;52.588;13.406;2023-03-15T00:46:37;0.90;99.90
25963;DHT22;13760;52.588;13.406;2023-03-15T00:49:03;0.90;99.90
25963;DHT22;13760;52.588;13.406;2023-03-15T00:51:29;0.90;99.90
25963;DHT22;13760;52.588;13.406;2023-03-15T00:53:55;0.90;99.90
25963;DHT22;13760;52.588;13.406;2023-03-15T00:56:24;0.90;99.90
25963;DHT22;13760;52.588;13.406;2023-03-15T00:58:50;0.90;99.90
25963;DHT22;13760;52.588;13.406;2023-03-15T01:01:22;0.90;99.90
25963;DHT22;13760;52.588;13.406;2023-03-15T01:03:48;0.90;99.90
25963;DHT22;13760;52.588;13.406;2023-03-15T01:06:16;0.90;99.90
25963;DHT22;13760;52.588;13.406;2023-03-15T01:08:43;0.90;99.90
25963;DHT22;13760;52.588;13.406;2023-03-15T01:11:11;0.90;99.90
25963;DHT22;13760;52.588;13.406;2023-03-15T01:13:37;0.90;99.90
25963;DHT22;13760;52.588;13.406;2023-03-15T01:16:04;0.80;99.90
25963;DHT22;13760;52.588;13.406;2023-03-15T01:18:29;0.90;99.90
25963;DHT22;13760;52.588;13.406;2023-03-15T01:20:55;1.00;99.90
25963;DHT22;13760;52.588;13.406;2023-03-15T01:23:21;1.00;99.90
25963;DHT22;13760;52.588;13.406;2023-03-15T01:25:46;1.00;99.90
25963;DHT22;13760;52.588;13.406;2023-03-15T01:28:12;1.00;99.90
25963;DHT22;13760;52.588;13.406;2023-03-15T01:30:37;1.00;99.90
25963;DHT22;13760;52.588;13.406;2023-03-15T01:33:03;1.00;99.90
25963;DHT22;13760;52.588;13.406;2023-03-15T01:35:29;1.10;99.90
25963;DHT22;13760;52.588;13.406;2023-03-15T01:37:54;1.10;99.90
25963;DHT22;13760;52.588;13.406;2023-03-15T01:40:20;1.00;99.90
25963;DHT22;13760;52.588;13.406;2023-03-15T01:48:21;1.00;99.90
25963;DHT22;13760;52.588;13.406;2023-03-15T01:50:48;0.90;99.90
25963;DHT22;13760;52.588;13.406;2023-03-15T01:53:14;0.90;99.90
25963;DHT22;13760;52.588;13.406;2023-03-15T01:55:40;0.90;99.90
25963;DHT22;13760;52.588;13.406;2023-03-15T01:58:06;0.90;99.90
25963;DHT22;13760;52.588;13.406;2023-03-15T02:00:33;0.90;99.90
25963;DHT22;13760;52.588;13.406;2023-03-15T02:03:05;0.80;99.90
25963;DHT22;13760;52.588;13.406;2023-03-15T02:05:35;0.80;99.90
25963;DHT22;13760;52.588;13.406;2023-03-15T02:08:04;0.80;99.90
25963;DHT22;13760;52.588;13.406;2023-03-15T02:10:39;0.80;99.90
25963;DHT22;13760;52.588;13.406;2023-03-15T02:13:07;0.70;99.90
25963;DHT22;13760;52.588;13.406;2023-03-15T02:15:32;0.80;99.90
25963;DHT22;13760;52.588;13.406;2023-03-15T02:17:58;0.80;99.90
25963;DHT22;13760;52.588;13.406;2023-03-15T02:20:37;0.80;99.90
25963;DHT22;13760;52.588;13.406;2023-03-15T02:23:08;0.80;99.90
25963;DHT22;13760;52.588;13.406;2023-03-15T02:25:55;0.80;99.90
25963;DHT22;13760;52.588;13.406;2023-03-15T02:28:22;0.70;99.90
25963;DHT22;13760;52.588;13.406;2023-03-15T02:30:48;0.70;99.90
25963;DHT22;13760;52.588;13.406;2023-03-15T02:33:38;0.80;99.90
25963;DHT22;13760;52.588;13.406;2023-03-15T02:36:26;0.70;99.90
25963;DHT22;13760;52.588;13.406;2023-03-15T02:38:53;0.70;99.90
25963;DHT22;13760;52.588;13.406;2023-03-15T02:41:38;0.70;99.90
25963;DHT22;13760;52.588;13.406;2023-03-15T02:44:29;0.70;99.90
25963;DHT22;13760;52.588;13.406;2023-03-15T02:47:07;0.70;99.90
25963;DHT22;13760;52.588;13.406;2023-03-15T02:49:36;0.70;99.90
25963;DHT22;13760;52.588;13.406;2023-03-15T02:52:03;0.70;99.90
25963;DHT22;13760;52.588;13.406;2023-03-15T02:54:29;0.80;99.90
25963;DHT22;13760;52.588;13.406;2023-03-15T02:56:59;0.70;99.90
25963;DHT22;13760;52.588;13.406;2023-03-15T02:59:24;0.70;99.90
25963;DHT22;13760;52.588;13.406;2023-03-15T03:01:50;0.70;99.90
25963;DHT22;13760;52.588;13.406;2023-03-15T03:04:15;0.70;99.90
25963;DHT22;13760;52.588;13.406;2023-03-15T03:06:41;0.70;99.90
25963;DHT22;13760;52.588;13.406;2023-03-15T03:09:09;0.70;99.90
25963;DHT22;13760;52.588;13.406;2023-03-15T03:11:34;0.70;99.90
25963;DHT22;13760;52.588;13.406;2023-03-15T03:14:00;0.70;99.90
25963;DHT22;13760;52.588;13.406;2023-03-15T03:16:25;0.70;99.90
25963;DHT22;13760;52.588;13.406;2023-03-15T03:18:51;0.70;99.90
25963;DHT22;13760;52.588;13.406;2023-03-15T03:21:17;0.70;99.90
25963;DHT22;13760;52.588;13.406;2023-03-15T03:23:42;0.60;99.90
25963;DHT22;13760;52.588;13.406;2023-03-15T03:26:16;0.60;99.90
25963;DHT22;13760;52.588;13.406;2023-03-15T03:28:43;0.60;99.90
25963;DHT22;13760;52.588;13.406;2023-03-15T03:31:28;0.60;99.90
25963;DHT22;13760;52.588;13.406;2023-03-15T03:33:54;0.60;99.90
25963;DHT22;13760;52.588;13.406;2023-03-15T03:36:20;0.60;99.90
25963;DHT22;13760;52.588;13.406;2023-03-15T03:38:46;0.60;99.90
25963;DHT22;13760;52.588;13.406;2023-03-15T03:41:13;0.60;99.90
25963;DHT22;13760;52.588;13.406;2023-03-15T03:43:39;0.60;99.90
25963;DHT22;13760;52.588;13.406;2023-03-15T03:46:05;0.70;99.90
25963;DHT22;13760;52.588;13.406;2023-03-15T03:48:31;0.70;99.90
25963;DHT22;13760;52.588;13.406;2023-03-15T03:50:57;0.70;99.90
25963;DHT22;13760;52.588;13.406;2023-03-15T03:53:23;0.70;99.90
25963;DHT22;13760;52.588;13.406;2023-03-15T03:55:49;0.70;99.90
25963;DHT22;13760;52.588;13.406;2023-03-15T03:58:14;0.60;99.90
25963;DHT22;13760;52.588;13.406;2023-03-15T04:00:40;0.60;99.90
25963;DHT22;13760;52.588;13.406;2023-03-15T04:03:06;0.60;99.90
25963;DHT22;13760;52.588;13.406;2023-03-15T04:05:32;0.60;99.90
25963;DHT22;13760;52.588;13.406;2023-03-15T04:07:58;0.60;99.90
25963;DHT22;13760;52.588;13.406;2023-03-15T04:10:23;0.60;99.90
25963;DHT22;13760;52.588;13.406;2023-03-15T04:12:55;0.50;99.90
25963;DHT22;13760;52.588;13.406;2023-03-15T04:15:23;0.50;99.90
25963;DHT22;13760;52.588;13.406;2023-03-15T04:17:52;0.50;99.90
25963;DHT22;13760;52.588;13.406;2023-03-15T04:20:22;0.50;99.90
25963;DHT22;13760;52.588;13.406;2023-03-15T04:22:48;0.40;99.90
25963;DHT22;13760;52.588;13.406;2023-03-15T04:25:18;0.40;99.90
25963;DHT22;13760;52.588;13.406;2023-03-15T04:27:44;0.30;99.90
25963;DHT22;13760;52.588;13.406;2023-03-15T04:30:10;0.30;99.90
25963;DHT22;13760;52.588;13.406;2023-03-15T04:32:36;0.20;99.90
25963;DHT22;13760;52.588;13.406;2023-03-15T04:35:02;0.20;99.90
25963;DHT22;13760;52.588;13.406;2023-03-15T04:37:29;0.20;99.90
25963;DHT22;13760;52.588;13.406;2023-03-15T04:39:56;0.20;99.90
25963;DHT22;13760;52.588;13.406;2023-03-15T04:42:22;0.20;99.90
25963;DHT22;13760;52.588;13.406;2023-03-15T04:44:47;0.20;99.90
25963;DHT22;13760;52.588;13.406;2023-03-15T04:47:13;0.20;99.90
25963;DHT22;13760;52.588;13.406;2023-03-15T04:49:38;0.20;99.90
25963;DHT22;13760;52.588;13.406;2023-03-15T04:52:04;0.20;99.90
25963;DHT22;13760;52.588;13.406;2023-03-15T04:54:29;0.20;99.90
25963;DHT22;13760;52.588;13.406;2023-03-15T04:56:55;0.20;99.90
25963;DHT22;13760;52.588;13.406;2023-03-15T04:59:21;0.20;99.90
25963;DHT22;13760;52.588;13.406;2023-03-15T05:01:46;0.20;99.90
25963;DHT22;13760;52.588;13.406;2023-03-15T05:04:12;0.20;99.90
25963;DHT22;13760;52.588;13.406;2023-03-15T05:06:38;0.20;99.90
25963;DHT22;13760;52.588;13.406;2023-03-15T05:09:03;0.10;99.90
25963;DHT22;13760;52.588;13.406;2023-03-15T05:11:29;0.10;99.90
25963;DHT22;13760;52.588;13.406;2023-03-15T05:13:55;0.10;99.90
25963;DHT22;13760;52.588;13.406;2023-03-15T05:16:20;0.20;99.90
25963;DHT22;13760;52.588;13.406;2023-03-15T05:18:46;0.20;99.90
25963;DHT22;13760;52.588;13.406;2023-03-15T05:21:12;0.20;99.90
25963;DHT22;13760;52.588;13.406;2023-03-15T05:23:38;0.20;99.90
25963;DHT22;13760;52.588;13.406;2023-03-15T05:26:05;0.30;99.90
25963;DHT22;13760;52.588;13.406;2023-03-15T05:28:32;0.30;99.90
25963;DHT22;13760;52.588;13.406;2023-03-15T05:30:58;0.30;99.90
25963;DHT22;13760;52.588;13.406;2023-03-15T05:33:23;0.40;99.90
25963;DHT22;13760;52.588;13.406;2023-03-15T05:35:49;0.40;99.90
25963;DHT22;13760;52.588;13.406;2023-03-15T05:38:17;0.50;99.90
25963;DHT22;13760;52.588;13.406;2023-03-15T05:40:44;0.50;99.90
25963;DHT22;13760;52.588;13.406;2023-03-15T05:43:10;0.50;99.90
25963;DHT22;13760;52.588;13.406;2023-03-15T05:45:37;0.50;99.90
25963;DHT22;13760;52.588;13.406;2023-03-15T05:48:03;0.60;99.90
25963;DHT22;13760;52.588;13.406;2023-03-15T05:50:29;0.70;99.90
25963;DHT22;13760;52.588;13.406;2023-03-15T05:52:55;0.80;99.90
25963;DHT22;13760;52.588;13.406;2023-03-15T05:55:21;0.80;99.90
25963;DHT22;13760;52.588;13.406;2023-03-15T05:57:47;0.90;99.90
25963;DHT22;13760;52.588;13.406;2023-03-15T06:00:12;1.00;99.90
25963;DHT22;13760;52.588;13.406;2023-03-15T06:02:40;1.00;99.90
25963;DHT22;13760;52.588;13.406;2023-03-15T06:05:06;1.10;99.90
25963;DHT22;13760;52.588;13.406;2023-03-15T06:07:31;1.10;99.90
25963;DHT22;13760;52.588;13.406;2023-03-15T06:09:57;1.10;99.90
25963;DHT22;13760;52.588;13.406;2023-03-15T06:12:22;1.10;99.90
25963;DHT22;13760;52.588;13.406;2023-03-15T06:14:48;1.10;99.90
25963;DHT22;13760;52.588;13.406;2023-03-15T06:17:13;1.10;99.90
25963;DHT22;13760;52.588;13.406;2023-03-15T06:19:39;1.20;99.90
25963;DHT22;13760;52.588;13.406;2023-03-15T06:22:05;1.20;99.90
25963;DHT22;13760;52.588;13.406;2023-03-15T06:24:30;1.30;99.90
25963;DHT22;13760;52.588;13.406;2023-03-15T06:26:56;1.40;99.90
25963;DHT22;13760;52.588;13.406;2023-03-15T06:29:22;1.40;99.90
25963;DHT22;13760;52.588;13.406;2023-03-15T06:31:47;1.50;99.90
25963;DHT22;13760;52.588;13.406;2023-03-15T06:34:17;1.60;99.90
25963;DHT22;13760;52.588;13.406;2023-03-15T06:36:42;1.70;99.90
25963;DHT22;13760;52.588;13.406;2023-03-15T06:39:09;1.70;99.90
25963;DHT22;13760;52.588;13.406;2023-03-15T06:41:36;1.80;99.90
25963;DHT22;13760;52.588;13.406;2023-03-15T06:44:02;1.80;99.90
25963;DHT22;13760;52.588;13.406;2023-03-15T06:46:27;1.90;99.90
25963;DHT22;13760;52.588;13.406;2023-03-15T06:48:53;1.90;99.90
25963;DHT22;13760;52.588;13.406;2023-03-15T06:51:18;1.90;99.90
25963;DHT22;13760;52.588;13.406;2023-03-15T06:53:44;1.90;99.90
25963;DHT22;13760;52.588;13.406;2023-03-15T06:56:10;1.90;99.90
25963;DHT22;13760;52.588;13.406;2023-03-15T06:58:36;2.00;99.90
25963;DHT22;13760;52.588;13.406;2023-03-15T07:01:02;2.00;99.90
25963;DHT22;13760;52.588;13.406;2023-03-15T07:03:28;2.00;99.90
25963;DHT22;13760;52.588;13.406;2023-03-15T07:05:53;2.00;99.90
25963;DHT22;13760;52.588;13.406;2023-03-15T07:08:23;2.10;99.90
25963;DHT22;13760;52.588;13.406;2023-03-15T07:10:50;2.10;99.90
25963;DHT22;13760;52.588;13.406;2023-03-15T07:13:16;2.20;99.90
25963;DHT22;13760;52.588;13.406;2023-03-15T07:15:42;2.20;99.90
25963;DHT22;13760;52.588;13.406;2023-03-15T07:18:07;2.30;99.90
25963;DHT22;13760;52.588;13.406;2023-03-15T07:20:33;2.30;99.90
25963;DHT22;13760;52.588;13.406;2023-03-15T07:22:58;2.30;99.90
25963;DHT22;13760;52.588;13.406;2023-03-15T07:25:24;2.40;99.90
25963;DHT22;13760;52.588;13.406;2023-03-15T07:27:50;2.40;99.90
25963;DHT22;13760;52.588;13.406;2023-03-15T07:30:17;2.40;99.90
25963;DHT22;13760;52.588;13.406;2023-03-15T07:32:43;2.40;99.90
25963;DHT22;13760;52.588;13.406;2023-03-15T07:35:09;2.50;99.90
25963;DHT22;13760;52.588;13.406;2023-03-15T07:37:34;2.50;99.90
25963;DHT22;13760;52.588;13.406;2023-03-15T07:40:00;2.50;99.90
25963;DHT22;13760;52.588;13.406;2023-03-15T07:42:35;2.50;99.90
25963;DHT22;13760;52.588;13.406;2023-03-15T07:45:02;2.50;99.90
25963;DHT22;13760;52.588;13.406;2023-03-15T07:47:27;2.50;99.90
25963;DHT22;13760;52.588;13.406;2023-03-15T07:49:53;2.50;99.90
25963;DHT22;13760;52.588;13.406;2023-03-15T07:52:19;2.60;99.90
25963;DHT22;13760;52.588;13.406;2023-03-15T07:54:45;2.50;99.90
25963;DHT22;13760;52.588;13.406;2023-03-15T07:57:11;2.60;99.90
25963;DHT22;13760;52.588;13.406;2023-03-15T07:59:37;2.60;99.90
25963;DHT22;13760;52.588;13.406;2023-03-15T08:02:02;2.50;99.90
25963;DHT22;13760;52.588;13.406;2023-03-15T08:04:28;2.60;99.90
25963;DHT22;13760;52.588;13.406;2023-03-15T08:06:53;2.60;99.90
25963;DHT22;13760;52.588;13.406;2023-03-15T08:09:19;2.70;99.90
25963;DHT22;13760;52.588;13.406;2023-03-15T08:11:44;2.70;99.90
25963;DHT22;13760;52.588;13.406;2023-03-15T08:14:10;2.80;99.90
25963;DHT22;13760;52.588;13.406;2023-03-15T08:16:35;2.80;99.90
25963;DHT22;13760;52.588;13.406;2023-03-15T08:19:01;2.80;99.90
25963;DHT22;13760;52.588;13.406;2023-03-15T08:21:27;2.80;99.90
25963;DHT22;13760;52.588;13.406;2023-03-15T08:23:52;2.90;99.90
25963;DHT22;13760;52.588;13.406;2023-03-15T08:26:17;3.00;99.90
25963;DHT22;13760;52.588;13.406;2023-03-15T08:28:43;3.00;99.90
25963;DHT22;13760;52.588;13.406;2023-03-15T08:31:09;3.10;99.90
25963;DHT22;13760;52.588;13.406;2023-03-15T08:33:38;3.10;99.90
25963;DHT22;13760;52.588;13.406;2023-03-15T08:36:04;3.10;99.90
25963;DHT22;13760;52.588;13.406;2023-03-15T08:38:29;3.10;99.90
25963;DHT22;13760;52.588;13.406;2023-03-15T08:40:56;3.20;99.90
25963;DHT22;13760;52.588;13.406;2023-03-15T08:43:21;3.20;99.90
25963;DHT22;13760;52.588;13.406;2023-03-15T08:45:49;3.20;99.90
25963;DHT22;13760;52.588;13.406;2023-03-15T08:48:15;3.20;99.90
25963;DHT22;13760;52.588;13.406;2023-03-15T08:50:41;3.20;99.90
25963;DHT22;13760;52.588;13.406;2023-03-15T08:53:07;3.20;99.90
25963;DHT22;13760;52.588;13.406;2023-03-15T08:55:33;3.20;99.90
25963;DHT22;13760;52.588;13.406;2023-03-15T08:57:58;3.20;99.90
25963;DHT22;13760;52.588;13.406;2023-03-15T09:00:26;3.30;99.90
25963;DHT22;13760;52.588;13.406;2023-03-15T09:02:52;3.30;99.90
25963;DHT22;13760;52.588;13.406;2023-03-15T09:05:18;3.40;99.90
25963;DHT22;13760;52.588;13.406;2023-03-15T09:07:45;3.40;99.90
25963;DHT22;13760;52.588;13.406;2023-03-15T09:10:12;3.50;99.90
25963;DHT22;13760;52.588;13.406;2023-03-15T09:12:46;3.60;99.90
25963;DHT22;13760;52.588;13.406;2023-03-15T09:15:12;3.60;99.90
25963;DHT22;13760;52.588;13.406;2023-03-15T09:17:38;3.70;99.90
25963;DHT22;13760;52.588;13.406;2023-03-15T09:20:05;3.80;99.90
25963;DHT22;13760;52.588;13.406;2023-03-15T09:22:39;3.80;99.90
25963;DHT22;13760;52.588;13.406;2023-03-15T09:25:05;3.90;99.90
25963;DHT22;13760;52.588;13.406;2023-03-15T09:27:35;4.00;99.90
25963;DHT22;13760;52.588;13.406;2023-03-15T09:30:00;4.00;99.90
25963;DHT22;13760;52.588;13.406;2023-03-15T09:32:27;3.90;99.90
25963;DHT22;13760;52.588;13.406;2023-03-15T09:34:55;3.90;99.90
25963;DHT22;13760;52.588;13.406;2023-03-15T09:37:20;3.90;99.90
25963;DHT22;13760;52.588;13.406;2023-03-15T09:39:46;4.00;99.90
25963;DHT22;13760;52.588;13.406;2023-03-15T09:42:23;4.00;99.90
25963;DHT22;13760;52.588;13.406;2023-03-15T09:48:13;4.10;99.90
25963;DHT22;13760;52.588;13.406;2023-03-15T09:50:47;4.20;99.90
25963;DHT22;13760;52.588;13.406;2023-03-15T09:53:31;4.40;99.90
25963;DHT22;13760;52.588;13.406;2023-03-15T09:56:00;4.40;99.90
25963;DHT22;13760;52.588;13.406;2023-03-15T09:58:29;4.50;99.90
25963;DHT22;13760;52.588;13.406;2023-03-15T10:01:12;4.50;99.90
25963;DHT22;13760;52.588;13.406;2023-03-15T10:04:03;4.60;99.90
25963;DHT22;13760;52.588;13.406;2023-03-15T10:06:30;4.60;99.90
25963;DHT22;13760;52.588;13.406;2023-03-15T10:09:02;4.70;99.90
25963;DHT22;13760;52.588;13.406;2023-03-15T10:14:31;4.90;99.90
25963;DHT22;13760;52.588;13.406;2023-03-15T10:17:04;5.00;99.90
25963;DHT22;13760;52.588;13.406;2023-03-15T10:24:30;5.10;99.90
25963;DHT22;13760;52.588;13.406;2023-03-15T10:27:13;5.20;99.90
25963;DHT22;13760;52.588;13.406;2023-03-15T10:29:41;5.20;99.90
25963;DHT22;13760;52.588;13.406;2023-03-15T10:32:14;5.40;99.90
25963;DHT22;13760;52.588;13.406;2023-03-15T10:34:44;5.60;99.90
25963;DHT22;13760;52.588;13.406;2023-03-15T10:37:12;5.60;99.90
25963;DHT22;13760;52.588;13.406;2023-03-15T10:39:37;5.80;99.90
25963;DHT22;13760;52.588;13.406;2023-03-15T10:42:03;6.10;99.90
25963;DHT22;13760;52.588;13.406;2023-03-15T10:44:28;6.10;99.90
25963;DHT22;13760;52.588;13.406;2023-03-15T10:47:13;6.10;99.90
25963;DHT22;13760;52.588;13.406;2023-03-15T10:49:43;6.00;99.90
25963;DHT22;13760;52.588;13.406;2023-03-15T10:52:46;6.00;99.90
25963;DHT22;13760;52.588;13.406;2023-03-15T10:55:17;5.90;99.90
25963;DHT22;13760;52.588;13.406;2023-03-15T10:57:55;5.90;99.90
25963;DHT22;13760;52.588;13.406;2023-03-15T11:00:31;5.80;99.90
25963;DHT22;13760;52.588;13.406;2023-03-15T11:03:02;5.90;99.90
25963;DHT22;13760;52.588;13.406;2023-03-15T11:05:31;6.00;99.90
25963;DHT22;13760;52.588;13.406;2023-03-15T11:07:59;6.10;99.90
25963;DHT22;13760;52.588;13.406;2023-03-15T11:10:28;6.30;99.90
25963;DHT22;13760;52.588;13.406;2023-03-15T11:13:25;6.60;99.90
25963;DHT22;13760;52.588;13.406;2023-03-15T11:18:54;6.50;99.90
25963;DHT22;13760;52.588;13.406;2023-03-15T11:21:24;6.90;99.90
25963;DHT22;13760;52.588;13.406;2023-03-15T11:23:51;6.90;99.90
25963;DHT22;13760;52.588;13.406;2023-03-15T11:26:24;6.80;99.90
25963;DHT22;13760;52.588;13.406;2023-03-15T11:28:52;7.00;99.90
25963;DHT22;13760;52.588;13.406;2023-03-15T11:31:20;7.00;99.90
25963;DHT22;13760;52.588;13.406;2023-03-15T11:36:23;6.90;99.90
25963;DHT22;13760;52.588;13.406;2023-03-15T11:38:50;6.70;99.90
25963;DHT22;13760;52.588;13.406;2023-03-15T11:41:35;6.80;99.90
25963;DHT22;13760;52.588;13.406;2023-03-15T11:47:40;7.50;99.90
25963;DHT22;13760;52.588;13.406;2023-03-15T11:49:50;7.70;99.90
25963;DHT22;13760;52.588;13.406;2023-03-15T11:52:17;7.70;99.90
25963;DHT22;13760;52.588;13.406;2023-03-15T11:54:45;7.60;99.90
25963;DHT22;13760;52.588;13.406;2023-03-15T11:57:38;7.40;99.90
25963;DHT22;13760;52.588;13.406;2023-03-15T12:00:24;7.30;99.90
25963;DHT22;13760;52.588;13.406;2023-03-15T12:02:55;7.50;99.90
25963;DHT22;13760;52.588;13.406;2023-03-15T12:05:59;7.80;99.90
25963;DHT22;13760;52.588;13.406;2023-03-15T12:11:00;8.10;99.90
25963;DHT22;13760;52.588;13.406;2023-03-15T12:13:30;8.30;99.90
25963;DHT22;13760;52.588;13.406;2023-03-15T12:15:56;8.20;99.90
25963;DHT22;13760;52.588;13.406;2023-03-15T12:18:30;8.20;99.90
25963;DHT22;13760;52.588;13.406;2023-03-15T12:26:37;8.20;99.90
25963;DHT22;13760;52.588;13.406;2023-03-15T12:32:11;8.60;99.90
25963;DHT22;13760;52.588;13.406;2023-03-15T12:34:57;8.30;99.90
25963;DHT22;13760;52.588;13.406;2023-03-15T12:37:43;8.20;99.90
25963;DHT22;13760;52.588;13.406;2023-03-15T12:53:21;9.20;99.90
25963;DHT22;13760;52.588;13.406;2023-03-15T12:55:51;9.20;99.90
25963;DHT22;13760;52.588;13.406;2023-03-15T12:58:20;9.50;99.90
25963;DHT22;13760;52.588;13.406;2023-03-15T13:00:52;9.80;99.90
25963;DHT22;13760;52.588;13.406;2023-03-15T13:03:20;10.10;99.90
25963;DHT22;13760;52.588;13.406;2023-03-15T13:06:09;10.20;99.30
25963;DHT22;13760;52.588;13.406;2023-03-15T13:17:06;10.00;97.50
25963;DHT22;13760;52.588;13.406;2023-03-15T13:19:45;10.00;96.40
25963;DHT22;13760;52.588;13.406;2023-03-15T13:22:20;9.90;95.50
25963;DHT22;13760;52.588;13.406;2023-03-15T13:24:53;9.60;93.80
25963;DHT22;13760;52.588;13.406;2023-03-15T13:27:30;9.40;93.90
25963;DHT22;13760;52.588;13.406;2023-03-15T13:30:06;9.10;94.30
25963;DHT22;13760;52.588;13.406;2023-03-15T13:32:33;8.90;96.20
25963;DHT22;13760;52.588;13.406;2023-03-15T13:34:59;8.90;94.40
25963;DHT22;13760;52.588;13.406;2023-03-15T13:37:31;8.70;95.90
25963;DHT22;13760;52.588;13.406;2023-03-15T13:40:04;8.50;95.30
25963;DHT22;13760;52.588;13.406;2023-03-15T13:42:39;8.30;95.90
25963;DHT22;13760;52.588;13.406;2023-03-15T13:47:30;7.60;99.90
25963;DHT22;13760;52.588;13.406;2023-03-15T13:49:56;7.30;99.90
25963;DHT22;13760;52.588;13.406;2023-03-15T13:52:22;6.90;99.90
25963;DHT22;13760;52.588;13.406;2023-03-15T13:54:48;6.60;99.90
25963;DHT22;13760;52.588;13.406;2023-03-15T13:57:18;6.70;99.90
25963;DHT22;13760;52.588;13.406;2023-03-15T13:59:55;6.80;99.90
25963;DHT22;13760;52.588;13.406;2023-03-15T14:02:23;6.90;99.90
25963;DHT22;13760;52.588;13.406;2023-03-15T14:05:13;6.90;99.90
25963;DHT22;13760;52.588;13.406;2023-03-15T14:07:45;7.00;99.90
25963;DHT22;13760;52.588;13.406;2023-03-15T14:12:42;7.40;99.90
25963;DHT22;13760;52.588;13.406;2023-03-15T14:18:00;7.40;99.90
25963;DHT22;13760;52.588;13.406;2023-03-15T14:20:40;7.30;99.90
25963;DHT22;13760;52.588;13.406;2023-03-15T14:23:16;7.20;99.90
25963;DHT22;13760;52.588;13.406;2023-03-15T14:25:43;7.20;99.90
25963;DHT22;13760;52.588;13.406;2023-03-15T14:28:14;7.30;99.90
25963;DHT22;13760;52.588;13.406;2023-03-15T14:30:41;7.30;99.90
25963;DHT22;13760;52.588;13.406;2023-03-15T14:33:29;7.20;99.90
25963;DHT22;13760;52.588;13.406;2023-03-15T14:36:01;7.20;99.90
25963;DHT22;13760;52.588;13.406;2023-03-15T14:38:35;7.30;99.90
25963;DHT22;13760;52.588;13.406;2023-03-15T14:43:50;7.30;99.90
25963;DHT22;13760;52.588;13.406;2023-03-15T14:46:16;7.30;99.90
25963;DHT22;13760;52.588;13.406;2023-03-15T14:48:41;7.30;99.90
25963;DHT22;13760;52.588;13.406;2023-03-15T14:51:13;7.40;99.90
25963;DHT22;13760;52.588;13.406;2023-03-15T14:53:40;7.40;99.90
25963;DHT22;13760;52.588;13.406;2023-03-15T14:56:08;7.40;99.90
25963;DHT22;13760;52.588;13.406;2023-03-15T14:58:35;7.30;99.90
25963;DHT22;13760;52.588;13.406;2023-03-15T15:01:01;7.30;99.90
25963;DHT22;13760;52.588;13.406;2023-03-15T15:04:03;7.30;99.90
25963;DHT22;13760;52.588;13.406;2023-03-15T15:06:29;7.30;99.90
25963;DHT22;13760;52.588;13.406;2023-03-15T15:08:57;7.30;99.90
25963;DHT22;13760;52.588;13.406;2023-03-15T15:11:24;7.30;99.90
25963;DHT22;13760;52.588;13.406;2023-03-15T15:13:49;7.40;99.90
25963;DHT22;13760;52.588;13.406;2023-03-15T15:16:15;7.40;99.90
25963;DHT22;13760;52.588;13.406;2023-03-15T15:18:44;7.50;99.90
25963;DHT22;13760;52.588;13.406;2023-03-15T15:21:26;7.50;99.90
25963;DHT22;13760;52.588;13.406;2023-03-15T15:23:52;7.30;99.90
25963;DHT22;13760;52.588;13.406;2023-03-15T15:26:23;7.20;99.90
25963;DHT22;13760;52.588;13.406;2023-03-15T15:28:50;7.10;99.90
25963;DHT22;13760;52.588;13.406;2023-03-15T15:31:19;7.10;99.90
25963;DHT22;13760;52.588;13.406;2023-03-15T15:33:48;7.10;99.90
25963;DHT22;13760;52.588;13.406;2023-03-15T15:36:25;7.10;99.90
25963;DHT22;13760;52.588;13.406;2023-03-15T15:38:52;7.00;99.90
25963;DHT22;13760;52.588;13.406;2023-03-15T15:41:22;6.90;99.90
25963;DHT22;13760;52.588;13.406;2023-03-15T15:43:49;6.90;99.90
25963;DHT22;13760;52.588;13.406;2023-03-15T15:46:14;6.90;99.90
25963;DHT22;13760;52.588;13.406;2023-03-15T15:48:40;6.90;99.90
25963;DHT22;13760;52.588;13.406;2023-03-15T15:51:26;6.80;99.90
25963;DHT22;13760;52.588;13.406;2023-03-15T15:53:54;6.80;99.90
25963;DHT22;13760;52.588;13.406;2023-03-15T15:56:21;6.80;99.90
25963;DHT22;13760;52.588;13.406;2023-03-15T15:58:51;6.70;99.90
25963;DHT22;13760;52.588;13.406;2023-03-15T16:01:18;6.70;99.90
25963;DHT22;13760;52.588;13.406;2023-03-15T16:03:46;6.60;99.90
25963;DHT22;13760;52.588;13.406;2023-03-15T16:06:16;6.60;99.90
25963;DHT22;13760;52.588;13.406;2023-03-15T16:08:45;6.50;99.90
25963;DHT22;13760;52.588;13.406;2023-03-15T16:11:13;6.40;99.90
25963;DHT22;13760;52.588;13.406;2023-03-15T16:13:41;6.20;99.90
25963;DHT22;13760;52.588;13.406;2023-03-15T16:16:13;6.10;99.90
25963;DHT22;13760;52.588;13.406;2023-03-15T16:18:40;5.90;99.90
25963;DHT22;13760;52.588;13.406;2023-03-15T16:21:05;5.50;99.90
25963;DHT22;13760;52.588;13.406;2023-03-15T16:23:32;5.30;99.90
25963;DHT22;13760;52.588;13.406;2023-03-15T16:25:58;5.10;99.90
25963;DHT22;13760;52.588;13.406;2023-03-15T16:28:24;5.00;99.90
25963;DHT22;13760;52.588;13.406;2023-03-15T16:30:49;4.80;99.90
25963;DHT22;13760;52.588;13.406;2023-03-15T16:33:18;4.60;99.90
25963;DHT22;13760;52.588;13.406;2023-03-15T16:35:44;4.30;99.90
25963;DHT22;13760;52.588;13.406;2023-03-15T16:38:16;4.20;99.90
25963;DHT22;13760;52.588;13.406;2023-03-15T16:40:49;4.10;99.90
25963;DHT22;13760;52.588;13.406;2023-03-15T16:43:15;4.00;99.90
25963;DHT22;13760;52.588;13.406;2023-03-15T16:45:41;3.90;99.90
25963;DHT22;13760;52.588;13.406;2023-03-15T16:48:06;3.80;99.90